createdAt,value
2019-05-11T00:01:59.885Z,99912.76
2019-05-11T00:04:29.007Z,99911.44
2019-05-11T00:06:58.128Z,99914.51
2019-05-11T00:09:27.295Z,99914.09
2019-05-11T00:11:56.443Z,99903.55
2019-05-11T00:14:25.636Z,99900.02
2019-05-11T00:16:54.743Z,99893.40
2019-05-11T00:19:23.864Z,99897.34
2019-05-11T00:21:53.060Z,99892.06
2019-05-11T00:24:22.182Z,99881.96
2019-05-11T00:26:51.346Z,99879.78
2019-05-11T00:29:20.526Z,99878.05
2019-05-11T00:31:49.696Z,99873.67
2019-05-11T00:34:18.826Z,99867.97
2019-05-11T00:36:48.068Z,99868.40
2019-05-11T00:39:17.226Z,99860.05
2019-05-11T00:41:46.404Z,99851.69
2019-05-11T00:44:15.543Z,99847.31
2019-05-11T00:46:44.664Z,99846.04
2019-05-11T00:49:13.778Z,99592.97
2019-05-11T00:51:42.890Z,99849.28
2019-05-11T00:54:12.038Z,99859.00
2019-05-11T00:56:41.168Z,99858.57
2019-05-11T00:59:21.312Z,99858.98
2019-05-11T01:01:41.329Z,99858.97
2019-05-11T01:04:10.471Z,99861.14
2019-05-11T01:06:39.597Z,99851.02
2019-05-11T01:09:08.806Z,99849.72
2019-05-11T01:11:37.923Z,99860.73
2019-05-11T01:14:07.155Z,99860.30
2019-05-11T01:16:36.260Z,99856.80
2019-05-11T01:19:05.399Z,99855.99
2019-05-11T01:21:34.586Z,99854.70
2019-05-11T01:24:03.686Z,99856.93
2019-05-11T01:26:32.798Z,99859.13
2019-05-11T01:29:01.939Z,99844.16
2019-05-11T01:31:31.057Z,99852.06
2019-05-11T01:34:00.197Z,99574.39
2019-05-11T01:36:29.331Z,99837.08
2019-05-11T01:38:58.467Z,99838.39
2019-05-11T01:41:27.632Z,99837.11
2019-05-11T01:43:56.831Z,99837.12
2019-05-11T01:46:25.969Z,99836.68
2019-05-11T01:48:55.124Z,99837.14
2019-05-11T01:51:24.264Z,99835.39
2019-05-11T01:53:53.377Z,99838.03
2019-05-11T01:56:22.491Z,99833.64
2019-05-11T01:58:51.633Z,99834.53
2019-05-11T02:01:20.793Z,99842.02
2019-05-11T02:03:49.907Z,99834.56
2019-05-11T02:06:19.206Z,99839.83
2019-05-11T02:08:48.345Z,99831.92
2019-05-11T02:11:17.479Z,99831.46
2019-05-11T02:13:46.630Z,99826.19
2019-05-11T02:16:15.736Z,99819.63
2019-05-11T02:18:44.877Z,99829.76
2019-05-11T02:21:14.000Z,99828.07
2019-05-11T02:23:43.089Z,99833.36
2019-05-11T02:26:12.210Z,99832.50
2019-05-11T02:28:41.535Z,99832.96
2019-05-11T02:31:10.692Z,99833.42
2019-05-11T02:33:39.792Z,99832.56
2019-05-11T02:36:08.914Z,99827.72
2019-05-11T02:38:38.066Z,99819.38
2019-05-11T02:41:07.197Z,99825.95
2019-05-11T02:43:36.575Z,99829.46
2019-05-11T02:46:05.699Z,99827.25
2019-05-11T02:48:34.820Z,99825.50
2019-05-11T02:51:04.082Z,99825.08
2019-05-11T02:53:34.835Z,99825.52
2019-05-11T02:56:04.661Z,99824.66
2019-05-11T02:58:33.793Z,99820.72
2019-05-11T03:01:02.918Z,99826.42
2019-05-11T03:03:32.075Z,99823.78
2019-05-11T03:06:01.333Z,99820.27
2019-05-11T03:08:30.472Z,99818.54
2019-05-11T03:10:59.616Z,99813.72
2019-05-11T03:13:28.732Z,99808.45
2019-05-11T03:15:57.932Z,99807.19
2019-05-11T03:18:27.040Z,99806.30
2019-05-11T03:20:56.189Z,99803.66
2019-05-11T03:23:25.313Z,99804.06
2019-05-11T03:25:54.420Z,99795.33
2019-05-11T03:28:23.552Z,99797.53
2019-05-11T03:30:52.651Z,99797.98
2019-05-11T03:33:21.812Z,99796.23
2019-05-11T03:35:50.890Z,99794.94
2019-05-11T03:38:19.992Z,99796.25
2019-05-11T03:40:49.102Z,99801.97
2019-05-11T03:43:18.216Z,99807.66
2019-05-11T03:45:47.369Z,99811.17
2019-05-11T03:48:16.487Z,99813.80
2019-05-11T03:50:45.607Z,99812.89
2019-05-11T03:53:14.777Z,99808.00
2019-05-11T03:55:43.876Z,99805.81
2019-05-11T03:58:13.087Z,99570.06
2019-05-11T04:00:42.221Z,99802.30
2019-05-11T04:03:11.356Z,99799.70
2019-05-11T04:05:40.472Z,99803.66
2019-05-11T04:08:09.605Z,99801.91
2019-05-11T04:10:38.743Z,99804.98
2019-05-11T04:13:07.893Z,99806.77
2019-05-11T04:15:37.029Z,99803.27
2019-05-11T04:18:06.173Z,99816.91
2019-05-11T04:20:35.308Z,99817.36
2019-05-11T04:23:04.508Z,99825.70
2019-05-11T04:25:33.622Z,99828.77
2019-05-11T04:28:02.750Z,99823.48
2019-05-11T04:30:31.881Z,99830.06
2019-05-11T04:33:01.035Z,99833.13
2019-05-11T04:35:30.286Z,99831.81
2019-05-11T04:37:59.393Z,99835.70
2019-05-11T04:40:28.592Z,99844.48
2019-05-11T04:42:57.812Z,99842.70
2019-05-11T04:45:26.947Z,99840.06
2019-05-11T04:47:56.069Z,99842.70
2019-05-11T04:50:25.216Z,99841.81
2019-05-11T04:52:54.360Z,99853.23
2019-05-11T04:55:23.501Z,99848.84
2019-05-11T04:57:52.621Z,99847.09
2019-05-11T05:00:21.856Z,99847.08
2019-05-11T05:02:51.003Z,99850.13
2019-05-11T05:05:20.125Z,99847.90
2019-05-11T05:07:50.709Z,99845.27
2019-05-11T05:10:22.252Z,99842.16
2019-05-11T05:12:52.982Z,99845.22
2019-05-11T05:15:21.733Z,99846.03
2019-05-11T05:17:50.897Z,99849.52
2019-05-11T05:20:20.085Z,99842.45
2019-05-11T05:22:49.197Z,99838.91
2019-05-11T05:25:18.349Z,99836.68
2019-05-11T05:27:47.451Z,99836.22
2019-05-11T05:30:17.230Z,99832.67
2019-05-11T05:32:46.342Z,99831.73
2019-05-11T05:35:15.487Z,99830.39
2019-05-11T05:37:44.756Z,99836.52
2019-05-11T05:40:13.903Z,99837.36
2019-05-11T05:42:43.051Z,99836.88
2019-05-11T05:45:12.481Z,99835.96
2019-05-11T05:47:41.654Z,99835.93
2019-05-11T05:50:11.073Z,99843.35
2019-05-11T05:52:40.223Z,99838.89
2019-05-11T05:55:09.439Z,99836.19
2019-05-11T05:57:38.599Z,99835.67
2019-05-11T06:00:09.657Z,99831.66
2019-05-11T06:02:38.805Z,99834.66
2019-05-11T06:05:08.031Z,99826.26
2019-05-11T06:07:37.187Z,99822.26
2019-05-11T06:10:06.948Z,99820.02
2019-05-11T06:12:36.066Z,99816.86
2019-05-11T06:15:05.755Z,99818.14
2019-05-11T06:17:34.878Z,99825.13
2019-05-11T06:20:04.802Z,99829.05
2019-05-11T06:22:33.997Z,99830.34
2019-05-11T06:25:03.199Z,99824.51
2019-05-11T06:27:32.324Z,99821.80
2019-05-11T06:30:01.484Z,99823.95
2019-05-11T06:32:30.615Z,99823.47
2019-05-11T06:34:59.752Z,99822.97
2019-05-11T06:37:28.916Z,99831.67
2019-05-11T06:39:58.104Z,99833.38
2019-05-11T06:42:27.279Z,99841.64
2019-05-11T06:44:56.413Z,99842.00
2019-05-11T06:47:25.542Z,99839.69
2019-05-11T06:49:54.687Z,99840.96
2019-05-11T06:52:23.813Z,99847.05
2019-05-11T06:54:52.945Z,99581.44
2019-05-11T06:57:22.054Z,99854.83
2019-05-11T06:59:51.195Z,99852.56
2019-05-11T07:02:20.365Z,99856.91
2019-05-11T07:04:49.528Z,99855.98
2019-05-11T07:07:18.688Z,99849.33
2019-05-11T07:09:47.882Z,99847.11
2019-05-11T07:12:17.151Z,99839.12
2019-05-11T07:14:46.498Z,99838.22
2019-05-11T07:17:15.668Z,99835.48
2019-05-11T07:19:47.492Z,99848.69
2019-05-11T07:22:15.705Z,99851.31
2019-05-11T07:24:44.868Z,99851.27
2019-05-11T07:27:14.014Z,99853.88
2019-05-11T07:29:43.167Z,99858.25
2019-05-11T07:32:21.937Z,99854.28
2019-05-11T07:34:48.573Z,99859.09
2019-05-11T07:37:18.520Z,99867.02
2019-05-11T07:39:48.738Z,99866.55
2019-05-11T07:42:18.211Z,99871.75
2019-05-11T07:44:48.153Z,99869.11
2019-05-11T07:47:18.644Z,99872.22
2019-05-11T07:49:48.857Z,99869.55
2019-05-11T07:52:18.346Z,99869.98
2019-05-11T07:54:52.678Z,99877.92
2019-05-11T07:57:18.693Z,99884.98
2019-05-11T07:59:48.609Z,99876.56
2019-05-11T08:02:18.018Z,99877.86
2019-05-11T08:04:48.187Z,99885.36
2019-05-11T08:07:18.212Z,99884.45
2019-05-11T08:09:48.370Z,99881.78
2019-05-11T08:12:19.223Z,99883.98
2019-05-11T08:14:57.771Z,99887.53
2019-05-11T08:17:19.348Z,99887.53
2019-05-11T08:19:48.510Z,99887.95
2019-05-11T08:22:22.534Z,99884.41
2019-05-11T08:24:48.608Z,99890.12
2019-05-11T08:27:18.679Z,99885.25
2019-05-11T08:29:48.765Z,99890.06
2019-05-11T08:32:18.408Z,99887.84
2019-05-11T08:34:49.060Z,99889.14
2019-05-11T08:37:18.892Z,99891.77
2019-05-11T08:39:48.332Z,99896.09
2019-05-11T08:42:18.041Z,99890.78
2019-05-11T08:44:48.336Z,99896.02
2019-05-11T08:47:17.864Z,99898.19
2019-05-11T08:49:48.443Z,99900.39
2019-05-11T08:52:18.650Z,99905.68
2019-05-11T08:54:48.729Z,99900.78
2019-05-11T08:57:18.151Z,99900.73
2019-05-11T08:59:48.394Z,99903.35
2019-05-11T09:02:18.649Z,99903.30
2019-05-11T09:04:48.526Z,99902.33
2019-05-11T09:07:18.434Z,99909.89
2019-05-11T09:09:48.352Z,99909.94
2019-05-11T09:12:18.314Z,99908.25
2019-05-11T09:14:47.966Z,99911.45
2019-05-11T09:17:18.262Z,99914.10
2019-05-11T09:19:48.149Z,99917.34
2019-05-11T09:22:18.719Z,99916.11
2019-05-11T09:24:48.023Z,99928.55
2019-05-11T09:27:18.383Z,99924.11
2019-05-11T09:29:48.075Z,99926.33
2019-05-11T09:32:17.948Z,99932.00
2019-05-11T09:34:48.459Z,99933.02
2019-05-11T09:37:18.426Z,99933.60
2019-05-11T09:39:47.926Z,99936.27
2019-05-11T09:42:17.923Z,99946.85
2019-05-11T09:44:48.552Z,99943.78
2019-05-11T09:47:18.938Z,99947.18
2019-05-11T09:49:50.956Z,99946.23
2019-05-11T09:52:19.135Z,99947.86
2019-05-11T09:54:48.790Z,99952.94
2019-05-11T09:57:18.594Z,99952.37
2019-05-11T09:59:47.964Z,99957.47
2019-05-11T10:02:20.679Z,99949.81
2019-05-11T10:04:48.470Z,99959.43
2019-05-11T10:07:18.253Z,99965.63
2019-05-11T10:09:47.947Z,99967.42
2019-05-11T10:12:18.106Z,99970.02
2019-05-11T10:14:48.573Z,99961.54
2019-05-11T10:17:18.291Z,99972.08
2019-05-11T10:19:49.642Z,99820.46
2019-05-11T10:22:18.685Z,99970.41
2019-05-11T10:24:47.838Z,99973.26
2019-05-11T10:27:18.894Z,99978.59
2019-05-11T10:29:48.496Z,99980.70
2019-05-11T10:32:18.410Z,99987.72
2019-05-11T10:34:47.858Z,99986.88
2019-05-11T10:37:17.712Z,99989.13
2019-05-11T10:39:48.851Z,99994.73
2019-05-11T10:42:18.119Z,99996.03
2019-05-11T10:44:47.961Z,99999.77
2019-05-11T10:47:18.456Z,100007.33
2019-05-11T10:49:48.479Z,100009.91
2019-05-11T10:52:18.118Z,100020.04
2019-05-11T10:54:47.891Z,100015.72
2019-05-11T10:57:18.909Z,100021.64
2019-05-11T10:59:48.877Z,100023.95
2019-05-11T11:02:18.630Z,100035.11
2019-05-11T11:04:48.541Z,100036.30
2019-05-11T11:07:19.454Z,100034.16
2019-05-11T11:09:49.145Z,100035.08
2019-05-11T11:12:18.835Z,100042.12
2019-05-11T11:14:48.321Z,100046.20
2019-05-11T11:17:19.194Z,100048.39
2019-05-11T11:19:48.801Z,100056.87
2019-05-11T11:22:35.922Z,100056.87
2019-05-11T11:24:48.888Z,100060.44
2019-05-11T11:27:18.604Z,100079.90
2019-05-11T11:29:47.933Z,100080.82
2019-05-11T11:32:18.370Z,100083.06
2019-05-11T11:34:48.474Z,100085.28
2019-05-11T11:37:17.808Z,100088.97
2019-05-11T11:39:47.620Z,100089.89
2019-05-11T11:42:18.476Z,100092.11
2019-05-11T11:44:48.362Z,100098.86
2019-05-11T11:47:21.339Z,100103.74
2019-05-11T11:49:48.386Z,100110.38
2019-05-11T11:52:18.778Z,100109.05
2019-05-11T11:54:48.064Z,100110.41
2019-05-11T11:57:18.321Z,100114.90
2019-05-11T11:59:48.131Z,100114.53
2019-05-11T12:02:19.105Z,100117.77
2019-05-11T12:04:48.690Z,100128.75
2019-05-11T12:07:18.135Z,100127.14
2019-05-11T12:09:48.353Z,100123.20
2019-05-11T12:12:18.624Z,100129.80
2019-05-11T12:14:48.183Z,100134.70
2019-05-11T12:17:18.177Z,100140.47
2019-05-11T12:19:47.995Z,100141.79
2019-05-11T12:22:18.803Z,99982.64
2019-05-11T12:24:48.394Z,100150.69
2019-05-11T12:27:18.339Z,100145.83
2019-05-11T12:29:47.804Z,100152.39
2019-05-11T12:32:23.067Z,100157.67
2019-05-11T12:34:52.183Z,100150.25
2019-05-11T12:37:22.087Z,100150.25
2019-05-11T12:39:51.331Z,100157.72
2019-05-11T12:42:20.539Z,100159.48
2019-05-11T12:44:49.732Z,100166.45
2019-05-11T12:47:24.280Z,100167.30
2019-05-11T12:49:49.811Z,100172.98
2019-05-11T12:52:18.953Z,100174.72
2019-05-11T12:54:48.131Z,100166.78
2019-05-11T12:57:18.681Z,100180.88
2019-05-11T12:59:48.757Z,100181.28
2019-05-11T13:02:19.859Z,100189.56
2019-05-11T13:04:49.100Z,100195.70
2019-05-11T13:07:19.675Z,100197.41
2019-05-11T13:09:49.033Z,100201.78
2019-05-11T13:12:18.728Z,100203.94
2019-05-11T13:14:48.858Z,100205.69
2019-05-11T13:17:18.795Z,100214.88
2019-05-11T13:19:49.251Z,100216.09
2019-05-11T13:22:18.602Z,100224.83
2019-05-11T13:24:48.264Z,100223.02
2019-05-11T13:27:18.089Z,100229.98
2019-05-11T13:29:48.606Z,100231.72
2019-05-11T13:32:18.771Z,100238.83
2019-05-11T13:34:48.252Z,100238.81
2019-05-11T13:37:18.849Z,100238.33
2019-05-11T13:39:51.135Z,100238.17
2019-05-11T13:42:23.161Z,100235.48
2019-05-11T13:44:51.203Z,100238.44
2019-05-11T13:47:23.254Z,100248.20
2019-05-11T13:49:52.477Z,100246.90
2019-05-11T13:52:21.654Z,100252.56
2019-05-11T13:54:50.833Z,100252.42
2019-05-11T13:57:20.095Z,100251.00
2019-05-11T13:59:49.262Z,100255.84
2019-05-11T14:02:18.587Z,100255.42
2019-05-11T14:04:48.214Z,100259.83
2019-05-11T14:07:18.597Z,100265.55
2019-05-11T14:09:48.504Z,100264.63
2019-05-11T14:12:18.265Z,100268.11
2019-05-11T14:14:48.093Z,100274.83
2019-05-11T14:17:18.672Z,100278.27
2019-05-11T14:19:49.223Z,100282.66
2019-05-11T14:22:18.627Z,100280.84
2019-05-11T14:24:48.365Z,100281.25
2019-05-11T14:27:18.753Z,100283.91
2019-05-11T14:29:48.677Z,100291.39
2019-05-11T14:32:28.440Z,100298.02
2019-05-11T14:34:57.979Z,100297.55
2019-05-11T14:37:28.544Z,100300.56
2019-05-11T14:39:58.426Z,100305.34
2019-05-11T14:42:28.635Z,100307.97
2019-05-11T14:44:58.939Z,100314.09
2019-05-11T14:47:28.446Z,100316.80
2019-05-11T14:49:57.941Z,100325.56
2019-05-11T14:52:28.055Z,100323.74
2019-05-11T14:54:58.431Z,100332.55
2019-05-11T14:57:27.981Z,100339.20
2019-05-11T14:59:58.614Z,100349.75
2019-05-11T15:02:48.569Z,100345.30
2019-05-11T15:05:18.476Z,100356.26
2019-05-11T15:07:48.462Z,100359.74
2019-05-11T15:10:19.225Z,100356.62
2019-05-11T15:12:48.920Z,100357.92
2019-05-11T15:15:18.819Z,100364.53
2019-05-11T15:17:51.102Z,100360.97
2019-05-11T15:20:20.576Z,100366.23
2019-05-11T15:22:49.752Z,100371.86
2019-05-11T15:25:20.023Z,100374.02
2019-05-11T15:27:49.306Z,100381.91
2019-05-11T15:30:19.067Z,100378.81
2019-05-11T15:32:49.934Z,100381.94
2019-05-11T15:35:19.202Z,100385.87
2019-05-11T15:37:48.455Z,100393.70
2019-05-11T15:40:18.983Z,100391.36
2019-05-11T15:42:48.768Z,100385.94
2019-05-11T15:45:38.089Z,100386.78
2019-05-11T15:48:08.424Z,100395.17
2019-05-11T15:50:40.046Z,100403.26
2019-05-11T15:53:08.856Z,100401.98
2019-05-11T15:55:41.795Z,100411.77
2019-05-11T15:58:08.812Z,100409.56
2019-05-11T16:00:40.013Z,100410.03
2019-05-11T16:03:08.997Z,100412.70
2019-05-11T16:05:38.224Z,100408.36
2019-05-11T16:08:08.360Z,100416.34
2019-05-11T16:10:38.403Z,100422.09
2019-05-11T16:13:09.224Z,100425.62
2019-05-11T16:15:38.674Z,100427.42
2019-05-11T16:18:08.469Z,100434.08
2019-05-11T16:20:37.775Z,100437.74
2019-05-11T16:23:06.955Z,100436.86
2019-05-11T16:25:38.246Z,100435.13
2019-05-11T16:28:07.799Z,100437.80
2019-05-11T16:30:37.963Z,100440.97
2019-05-11T16:33:08.758Z,100445.44
2019-05-11T16:35:38.376Z,100454.72
2019-05-11T16:38:07.743Z,100450.78
2019-05-11T16:40:38.724Z,100456.16
2019-05-11T16:43:08.580Z,100450.43
2019-05-11T16:45:37.741Z,100450.93
2019-05-11T16:48:07.981Z,100450.93
2019-05-11T16:50:38.350Z,100450.45
2019-05-11T16:53:07.598Z,100454.92
2019-05-11T16:55:37.708Z,100463.77
2019-05-11T16:58:08.254Z,100470.77
2019-05-11T17:00:41.931Z,100474.37
2019-05-11T17:03:08.423Z,100477.48
2019-05-11T17:05:38.322Z,100472.59
2019-05-11T17:08:08.081Z,100477.02
2019-05-11T17:10:37.534Z,100476.94
2019-05-11T17:13:08.579Z,100483.06
2019-05-11T17:15:37.575Z,100484.30
2019-05-11T17:18:08.103Z,100489.95
2019-05-11T17:20:37.303Z,100502.27
2019-05-11T17:23:06.543Z,100508.83
2019-05-11T17:25:37.801Z,100510.12
2019-05-11T17:28:09.415Z,100517.97
2019-05-11T17:30:38.648Z,100521.97
2019-05-11T17:33:08.669Z,100526.47
2019-05-11T17:35:38.141Z,100537.02
2019-05-11T17:38:07.995Z,100537.55
2019-05-11T17:40:37.834Z,100541.53
2019-05-11T17:43:09.089Z,100550.91
2019-05-11T17:45:37.990Z,100546.52
2019-05-11T17:48:08.470Z,100545.68
2019-05-11T17:50:38.302Z,100536.04
2019-05-11T17:53:07.650Z,100542.70
2019-05-11T17:55:38.399Z,100539.26
2019-05-11T17:58:08.696Z,100555.19
2019-05-11T18:00:39.206Z,100564.58
2019-05-11T18:03:11.426Z,100575.67
2019-05-11T18:05:39.408Z,100579.67
2019-05-11T18:08:08.829Z,100585.87
2019-05-11T18:10:38.553Z,100590.29
2019-05-11T18:13:07.706Z,100596.52
2019-05-11T18:15:38.067Z,100602.28
2019-05-11T18:18:09.456Z,100613.39
2019-05-11T18:20:38.269Z,100612.14
2019-05-11T18:23:08.255Z,100621.41
2019-05-11T18:25:39.045Z,100632.92
2019-05-11T18:28:08.423Z,100641.37
2019-05-11T18:30:38.758Z,100644.52
2019-05-11T18:33:08.449Z,100644.55
2019-05-11T18:35:37.791Z,100643.71
2019-05-11T18:38:08.560Z,100645.96
2019-05-11T18:40:38.329Z,100650.87
2019-05-11T18:43:08.567Z,100652.67
2019-05-11T18:45:38.398Z,100657.12
2019-05-11T18:48:08.134Z,100654.95
2019-05-11T18:50:38.511Z,100665.61
2019-05-11T18:53:09.263Z,100677.98
2019-05-11T18:55:38.568Z,100681.54
2019-05-11T18:58:07.709Z,100686.00
2019-05-11T19:00:38.205Z,100686.89
2019-05-11T19:03:08.782Z,100682.09
2019-05-11T19:05:38.705Z,100692.24
2019-05-11T19:08:07.936Z,100700.65
2019-05-11T19:10:38.358Z,100706.41
2019-05-11T19:13:09.732Z,100705.11
2019-05-11T19:15:39.005Z,100715.27
2019-05-11T19:18:08.094Z,100720.58
2019-05-11T19:20:45.119Z,100731.17
2019-05-11T19:23:08.421Z,100737.39
2019-05-11T19:25:37.662Z,100743.14
2019-05-11T19:28:08.571Z,100749.32
2019-05-11T19:30:38.446Z,100753.33
2019-05-11T19:33:10.765Z,100752.45
2019-05-11T19:35:38.513Z,100759.95
2019-05-11T19:38:08.664Z,100773.62
2019-05-11T19:40:38.651Z,100765.69
2019-05-11T19:43:08.355Z,100785.52
2019-05-11T19:45:38.554Z,100786.44
2019-05-11T19:48:08.487Z,100790.41
2019-05-11T19:50:38.201Z,100798.33
2019-05-11T19:53:08.663Z,100804.50
2019-05-11T19:55:37.788Z,100812.45
2019-05-11T19:58:06.966Z,100822.58
2019-05-11T20:00:38.005Z,100832.70
2019-05-11T20:03:09.170Z,100834.46
2019-05-11T20:05:38.115Z,100834.45
2019-05-11T20:08:07.942Z,100841.07
2019-05-11T20:10:38.322Z,100850.75
2019-05-11T20:13:08.212Z,100870.56
2019-05-11T20:15:38.113Z,100855.14
2019-05-11T20:18:07.948Z,100857.77
2019-05-11T20:20:37.718Z,100862.62
2019-05-11T20:23:07.798Z,100867.02
2019-05-11T20:25:37.991Z,100878.45
2019-05-11T20:28:08.145Z,100883.28
2019-05-11T20:30:37.350Z,100889.41
2019-05-11T20:33:08.574Z,100892.50
2019-05-11T20:35:38.309Z,100894.69
2019-05-11T20:38:08.749Z,100900.83
2019-05-11T20:40:37.959Z,100903.45
2019-05-11T20:43:07.990Z,100900.78
2019-05-11T20:45:37.790Z,100906.92
2019-05-11T20:48:07.957Z,100913.52
2019-05-11T20:50:37.851Z,100908.20
2019-05-11T20:53:08.592Z,100916.13
2019-05-11T20:55:37.989Z,100913.03
2019-05-11T20:58:08.623Z,100924.44
2019-05-11T21:00:38.432Z,100926.16
2019-05-11T21:03:08.043Z,100925.73
2019-05-11T21:05:37.191Z,100934.95
2019-05-11T21:08:08.410Z,100937.99
2019-05-11T21:10:39.285Z,100942.34
2019-05-11T21:13:08.839Z,100950.68
2019-05-11T21:15:38.664Z,100951.56
2019-05-11T21:18:08.030Z,100953.70
2019-05-11T21:20:38.081Z,100959.39
2019-05-11T21:23:08.252Z,100958.89
2019-05-11T21:25:37.865Z,100957.99
2019-05-11T21:28:08.567Z,100963.69
2019-05-11T21:30:40.013Z,100954.00
2019-05-11T21:33:08.822Z,100967.64
2019-05-11T21:35:38.599Z,100981.64
2019-05-11T21:38:07.881Z,100987.75
2019-05-11T21:40:38.080Z,100993.86
2019-05-11T21:43:08.693Z,100999.58
2019-05-11T21:45:40.480Z,101002.67
2019-05-11T21:48:08.980Z,101004.83
2019-05-11T21:50:38.377Z,101014.44
2019-05-11T21:53:10.247Z,101021.89
2019-05-11T21:55:38.448Z,101015.73
2019-05-11T21:58:09.062Z,101022.31
2019-05-11T22:00:38.794Z,101023.16
2019-05-11T22:03:10.321Z,101033.22
2019-05-11T22:05:39.034Z,101036.66
2019-05-11T22:08:08.692Z,101038.88
2019-05-11T22:10:38.564Z,101044.09
2019-05-11T22:13:07.812Z,101042.32
2019-05-11T22:15:38.579Z,101051.98
2019-05-11T22:18:08.166Z,101051.05
2019-05-11T22:20:40.520Z,101055.39
2019-05-11T22:23:08.582Z,101053.64
2019-05-11T22:25:38.283Z,101053.69
2019-05-11T22:28:08.515Z,101062.88
2019-05-11T22:30:39.315Z,101069.84
2019-05-11T22:33:09.016Z,101073.84
2019-05-11T22:35:38.550Z,101076.00
2019-05-11T22:38:08.465Z,101084.79
2019-05-11T22:40:38.399Z,101082.97
2019-05-11T22:43:09.347Z,101089.09
2019-05-11T22:45:38.661Z,101092.56
2019-05-11T22:48:08.143Z,101098.28
2019-05-11T22:50:38.145Z,101100.45
2019-05-11T22:53:08.805Z,101109.19
2019-05-11T22:55:38.542Z,101114.42
2019-05-11T22:58:08.572Z,101122.73
2019-05-11T23:00:45.485Z,101122.25
2019-05-11T23:03:14.854Z,101126.13
2019-05-11T23:05:43.970Z,101127.80
2019-05-11T23:08:13.124Z,101133.89
2019-05-11T23:10:42.254Z,101144.44
2019-05-11T23:13:11.806Z,101137.29
2019-05-11T23:15:40.970Z,101141.19
2019-05-11T23:18:10.062Z,101136.33
2019-05-11T23:20:39.239Z,101140.73
2019-05-11T23:23:08.920Z,101151.20
2019-05-11T23:25:39.257Z,101153.81
2019-05-11T23:28:08.615Z,101157.75
2019-05-11T23:30:38.997Z,101160.78
2019-05-11T23:33:08.303Z,101160.30
2019-05-11T23:35:38.261Z,101162.47
2019-05-11T23:38:07.643Z,101154.95
2019-05-11T23:40:37.972Z,101159.72
2019-05-11T23:43:08.654Z,101168.48
2019-05-11T23:45:38.335Z,101170.62
2019-05-11T23:48:07.603Z,101172.78
2019-05-11T23:50:38.688Z,101171.86
2019-05-11T23:53:10.256Z,101177.56
2019-05-11T23:55:38.581Z,101172.67
2019-05-11T23:58:08.251Z,101176.53
